IGO5312 VEHO-VECC
Flight info
| Callsign | IGO5312 |
|---|---|
| Flight time | N/A |
| Altitude | 38000 |
| Route | KALAM W51 GGT R472 RAJ DCT AGODA AGODA2A |
| Aircraft | A320/M-SDE3FGHIRWY/LB1 |
Departure
| Time | 2026-05-07 10:13 |
|---|---|
| Airport | Itanagar Donyi Polo Hollongi Airport (VEHO) |
Arrival
| Time | N/A |
|---|---|
| Airport | Netaji Subhash Chandra Bose International Airport (VECC) |
| Time | Latitude | Longitude | Altitude | Speed | Heading |
|---|---|---|---|---|---|
| 2026-05-07 09:59 | 26.97089 | 93.64292 | 358 ft | 0 kts | 346° |
| 2026-05-07 10:01 | 26.97086 | 93.64293 | 362 ft | 3 kts | 346° |
| 2026-05-07 10:01 | 26.97060 | 93.64301 | 358 ft | 4 kts | 346° |
| 2026-05-07 10:02 | 26.97034 | 93.64306 | 358 ft | 4 kts | 3° |
| 2026-05-07 10:02 | 26.97010 | 93.64298 | 358 ft | 4 kts | 45° |
| 2026-05-07 10:02 | 26.97001 | 93.64283 | 358 ft | 1 kts | 76° |
| 2026-05-07 10:02 | 26.97001 | 93.64280 | 358 ft | 0 kts | 76° |
| 2026-05-07 10:07 | 26.97001 | 93.64282 | 358 ft | 1 kts | 76° |
| 2026-05-07 10:07 | 26.97005 | 93.64302 | 358 ft | 4 kts | 76° |
| 2026-05-07 10:08 | 26.97015 | 93.64343 | 363 ft | 7 kts | 76° |
| 2026-05-07 10:08 | 26.97030 | 93.64409 | 365 ft | 10 kts | 76° |
| 2026-05-07 10:08 | 26.96986 | 93.64463 | 365 ft | 12 kts | 166° |
| 2026-05-07 10:08 | 26.96895 | 93.64488 | 364 ft | 15 kts | 166° |
| 2026-05-07 10:09 | 26.96850 | 93.64448 | 364 ft | 10 kts | 252° |
| 2026-05-07 10:09 | 26.96832 | 93.64363 | 363 ft | 12 kts | 255° |
| 2026-05-07 10:09 | 26.96808 | 93.64259 | 358 ft | 15 kts | 256° |
| 2026-05-07 10:09 | 26.96779 | 93.64132 | 360 ft | 18 kts | 255° |
| 2026-05-07 10:10 | 26.96745 | 93.63984 | 363 ft | 21 kts | 256° |
| 2026-05-07 10:10 | 26.96707 | 93.63813 | 359 ft | 24 kts | 256° |
| 2026-05-07 10:10 | 26.96684 | 93.63711 | 363 ft | 13 kts | 256° |
| 2026-05-07 10:10 | 26.96660 | 93.63604 | 361 ft | 16 kts | 256° |
| 2026-05-07 10:11 | 26.96631 | 93.63475 | 361 ft | 19 kts | 256° |
| 2026-05-07 10:11 | 26.96596 | 93.63323 | 366 ft | 21 kts | 255° |
| 2026-05-07 10:11 | 26.96555 | 93.63151 | 360 ft | 24 kts | 256° |
| 2026-05-07 10:11 | 26.96519 | 93.62989 | 360 ft | 18 kts | 256° |
| 2026-05-07 10:12 | 26.96470 | 93.62888 | 362 ft | 10 kts | 241° |
| 2026-05-07 10:12 | 26.96496 | 93.62884 | 364 ft | 7 kts | 76° |
| 2026-05-07 10:12 | 26.96509 | 93.62949 | 360 ft | 10 kts | 75° |
| 2026-05-07 10:12 | 26.96530 | 93.63039 | 365 ft | 14 kts | 75° |
| 2026-05-07 10:13 | 26.96607 | 93.63372 | 361 ft | 86 kts | 75° |
| 2026-05-07 10:13 | 26.96828 | 93.64339 | 422 ft | 158 kts | 76° |
| 2026-05-07 10:13 | 26.97025 | 93.65517 | 1330 ft | 148 kts | 76° |
| 2026-05-07 10:13 | 26.97274 | 93.66659 | 1746 ft | 159 kts | 73° |
| 2026-05-07 10:14 | 26.97531 | 93.67955 | 2002 ft | 184 kts | 88° |
| 2026-05-07 10:14 | 26.97034 | 93.69324 | 2311 ft | 205 kts | 139° |
| 2026-05-07 10:14 | 26.95685 | 93.69969 | 2673 ft | 226 kts | 175° |
| 2026-05-07 10:14 | 26.94031 | 93.70057 | 3093 ft | 250 kts | 180° |
| 2026-05-07 10:15 | 26.92220 | 93.70042 | 3652 ft | 268 kts | 181° |
| 2026-05-07 10:15 | 26.90334 | 93.70007 | 4539 ft | 273 kts | 181° |
| 2026-05-07 10:15 | 26.88424 | 93.69986 | 5478 ft | 276 kts | 180° |
| 2026-05-07 10:15 | 26.86487 | 93.69986 | 6401 ft | 280 kts | 180° |
| 2026-05-07 10:16 | 26.84529 | 93.70004 | 7294 ft | 283 kts | 179° |
| 2026-05-07 10:16 | 26.82545 | 93.70034 | 8158 ft | 287 kts | 179° |
| 2026-05-07 10:16 | 26.80534 | 93.70070 | 8985 ft | 291 kts | 179° |
| 2026-05-07 10:16 | 26.78496 | 93.70110 | 9786 ft | 295 kts | 179° |
| 2026-05-07 10:17 | 26.76419 | 93.70152 | 10358 ft | 308 kts | 180° |
| 2026-05-07 10:17 | 26.74236 | 93.70193 | 10755 ft | 324 kts | 180° |
| 2026-05-07 10:17 | 26.71958 | 93.70236 | 11443 ft | 330 kts | 180° |
| 2026-05-07 10:17 | 26.69653 | 93.70281 | 12227 ft | 332 kts | 181° |
| 2026-05-07 10:18 | 26.67302 | 93.70331 | 13051 ft | 334 kts | 181° |
| 2026-05-07 10:18 | 26.65004 | 93.70264 | 13774 ft | 335 kts | 191° |
| 2026-05-07 10:18 | 26.62791 | 93.69480 | 14464 ft | 335 kts | 209° |
| 2026-05-07 10:18 | 26.60921 | 93.67940 | 15142 ft | 336 kts | 227° |
| 2026-05-07 10:19 | 26.59585 | 93.65801 | 15834 ft | 338 kts | 244° |
| 2026-05-07 10:19 | 26.58865 | 93.63301 | 16532 ft | 340 kts | 255° |
| 2026-05-07 10:19 | 26.58288 | 93.60728 | 17207 ft | 342 kts | 255° |
| 2026-05-07 10:19 | 26.57708 | 93.58140 | 17880 ft | 344 kts | 255° |
| 2026-05-07 10:20 | 26.57119 | 93.55538 | 18527 ft | 347 kts | 255° |
| 2026-05-07 10:20 | 26.56522 | 93.52917 | 19161 ft | 349 kts | 254° |
| 2026-05-07 10:20 | 26.55920 | 93.50282 | 19784 ft | 351 kts | 254° |
| 2026-05-07 10:20 | 26.55314 | 93.47635 | 20413 ft | 353 kts | 254° |
| 2026-05-07 10:21 | 26.54703 | 93.44973 | 21006 ft | 355 kts | 253° |
| 2026-05-07 10:21 | 26.54088 | 93.42296 | 21563 ft | 357 kts | 253° |
| 2026-05-07 10:21 | 26.53469 | 93.39600 | 22096 ft | 360 kts | 253° |
| 2026-05-07 10:21 | 26.52844 | 93.36889 | 22621 ft | 362 kts | 253° |
| 2026-05-07 10:22 | 26.52209 | 93.34157 | 23135 ft | 364 kts | 253° |
| 2026-05-07 10:22 | 26.51569 | 93.31413 | 23641 ft | 366 kts | 252° |
| 2026-05-07 10:22 | 26.50933 | 93.28685 | 24125 ft | 368 kts | 252° |
| 2026-05-07 10:22 | 26.50288 | 93.25916 | 24574 ft | 370 kts | 253° |
| 2026-05-07 10:23 | 26.49633 | 93.23119 | 25008 ft | 372 kts | 253° |
| 2026-05-07 10:23 | 26.48977 | 93.20316 | 25450 ft | 374 kts | 252° |
| 2026-05-07 10:23 | 26.48320 | 93.17505 | 25897 ft | 375 kts | 253° |
| 2026-05-07 10:23 | 26.47661 | 93.14676 | 26345 ft | 377 kts | 253° |
| 2026-05-07 10:24 | 26.46998 | 93.11837 | 26764 ft | 379 kts | 253° |
| 2026-05-07 10:24 | 26.46332 | 93.08987 | 27174 ft | 380 kts | 253° |
| 2026-05-07 10:24 | 26.45661 | 93.06123 | 27572 ft | 382 kts | 253° |
| 2026-05-07 10:24 | 26.44986 | 93.03249 | 27958 ft | 384 kts | 253° |
| 2026-05-07 10:25 | 26.44304 | 93.00362 | 28362 ft | 385 kts | 253° |
| 2026-05-07 10:25 | 26.43621 | 92.97469 | 28766 ft | 386 kts | 253° |
| 2026-05-07 10:25 | 26.42939 | 92.94571 | 29175 ft | 387 kts | 253° |
| 2026-05-07 10:25 | 26.42264 | 92.91694 | 29578 ft | 389 kts | 253° |
| 2026-05-07 10:26 | 26.41578 | 92.88771 | 30014 ft | 390 kts | 253° |
| 2026-05-07 10:26 | 26.40889 | 92.85843 | 30419 ft | 391 kts | 253° |
| 2026-05-07 10:26 | 26.40148 | 92.82923 | 30802 ft | 391 kts | 248° |
| 2026-05-07 10:26 | 26.38971 | 92.80196 | 31166 ft | 391 kts | 242° |
| 2026-05-07 10:27 | 26.37712 | 92.77502 | 31533 ft | 392 kts | 242° |
| 2026-05-07 10:27 | 26.36446 | 92.74810 | 31956 ft | 391 kts | 242° |
| 2026-05-07 10:27 | 26.35186 | 92.72139 | 32509 ft | 387 kts | 242° |
| 2026-05-07 10:27 | 26.33937 | 92.69493 | 33056 ft | 384 kts | 242° |
| 2026-05-07 10:28 | 26.32701 | 92.66870 | 33587 ft | 381 kts | 242° |
| 2026-05-07 10:28 | 26.31476 | 92.64268 | 34103 ft | 378 kts | 242° |
| 2026-05-07 10:28 | 26.30271 | 92.61710 | 34586 ft | 375 kts | 242° |
| 2026-05-07 10:28 | 26.29063 | 92.59146 | 35047 ft | 373 kts | 242° |
| 2026-05-07 10:29 | 26.27860 | 92.56594 | 35430 ft | 372 kts | 242° |
| 2026-05-07 10:29 | 26.26657 | 92.54044 | 35789 ft | 372 kts | 242° |
| 2026-05-07 10:29 | 26.25451 | 92.51494 | 36141 ft | 371 kts | 242° |
| 2026-05-07 10:30 | 26.23041 | 92.46413 | 36802 ft | 370 kts | 243° |
| 2026-05-07 10:30 | 26.21841 | 92.43883 | 37158 ft | 369 kts | 243° |
| 2026-05-07 10:30 | 26.20646 | 92.41362 | 37559 ft | 366 kts | 243° |
| 2026-05-07 10:30 | 26.19460 | 92.38852 | 37860 ft | 365 kts | 243° |
| 2026-05-07 10:31 | 26.17102 | 92.33875 | 37937 ft | 362 kts | 243° |
| 2026-05-07 10:31 | 26.14784 | 92.28903 | 37947 ft | 362 kts | 243° |
| 2026-05-07 10:32 | 26.12478 | 92.23930 | 37949 ft | 362 kts | 243° |
| 2026-05-07 10:32 | 26.10169 | 92.18954 | 37950 ft | 361 kts | 243° |
| 2026-05-07 10:33 | 26.07868 | 92.13986 | 37947 ft | 361 kts | 243° |
| 2026-05-07 10:33 | 26.05584 | 92.09047 | 37939 ft | 362 kts | 243° |
| 2026-05-07 10:34 | 26.03258 | 92.04026 | 37936 ft | 363 kts | 243° |
| 2026-05-07 10:34 | 26.00961 | 91.99073 | 37935 ft | 363 kts | 243° |
| 2026-05-07 10:35 | 25.98643 | 91.94082 | 37939 ft | 363 kts | 243° |
| 2026-05-07 10:35 | 25.96329 | 91.89094 | 37933 ft | 363 kts | 243° |
| 2026-05-07 10:36 | 25.94017 | 91.84097 | 37938 ft | 363 kts | 243° |
| 2026-05-07 10:36 | 25.91706 | 91.79110 | 37935 ft | 363 kts | 243° |
| 2026-05-07 10:37 | 25.89400 | 91.74120 | 37925 ft | 363 kts | 243° |
| 2026-05-07 10:37 | 25.87089 | 91.69135 | 37920 ft | 363 kts | 243° |
| 2026-05-07 10:38 | 25.84777 | 91.64147 | 37916 ft | 363 kts | 243° |
| 2026-05-07 10:38 | 25.83623 | 91.61659 | 37911 ft | 363 kts | 243° |